Terminal Aerodrome Forecast
Issued by NWS Spokane, WA

Home | Current Version | Previous Version | Text Only | Print | Product List | Glossary On
Versions: 1 2 3 4 5 6 7 8 9 10 11 12 13 14 15 16 17 18 19 20 21 22 23 24 25 26 27 28 29 30 31 32 33 34 35 36 37 38 39
000
FTUS46 KOTX 280539
TAFGEG
TAF
KGEG 280539Z 2806/2906 24010KT P6SM BKN006 BKN015
     FM280900 24005KT 5SM BR VCSH OVC005
     FM281600 34005KT P6SM VCSH BKN006 OVC015
     FM290400 06007KT P6SM -SHSN SCT015 BKN050=

USA.gov is the U.S. government's official web portal to all federal, state and local government web resources and services.